sensor_id;sensor_type;location;lat;lon;timestamp;temperature;humidity
18444;DHT22;9350;53.176;8.194;2023-09-19T00:01:39;17.80;99.90
18444;DHT22;9350;53.176;8.194;2023-09-19T00:04:08;17.80;99.90
18444;DHT22;9350;53.176;8.194;2023-09-19T00:06:35;17.80;99.90
18444;DHT22;9350;53.176;8.194;2023-09-19T00:09:02;17.80;99.90
18444;DHT22;9350;53.176;8.194;2023-09-19T00:11:29;17.70;99.90
18444;DHT22;9350;53.176;8.194;2023-09-19T00:13:56;17.70;99.90
18444;DHT22;9350;53.176;8.194;2023-09-19T00:16:25;17.70;99.90
18444;DHT22;9350;53.176;8.194;2023-09-19T00:18:52;17.70;99.90
18444;DHT22;9350;53.176;8.194;2023-09-19T00:21:20;17.70;99.90
18444;DHT22;9350;53.176;8.194;2023-09-19T00:23:47;17.70;99.90
18444;DHT22;9350;53.176;8.194;2023-09-19T00:26:14;17.70;99.90
18444;DHT22;9350;53.176;8.194;2023-09-19T00:28:43;17.70;99.90
18444;DHT22;9350;53.176;8.194;2023-09-19T00:31:10;17.70;99.90
18444;DHT22;9350;53.176;8.194;2023-09-19T00:33:37;17.70;99.90
18444;DHT22;9350;53.176;8.194;2023-09-19T00:36:04;17.60;99.90
18444;DHT22;9350;53.176;8.194;2023-09-19T00:38:32;17.70;99.90
18444;DHT22;9350;53.176;8.194;2023-09-19T00:40:59;17.70;99.90
18444;DHT22;9350;53.176;8.194;2023-09-19T00:43:26;17.60;99.90
18444;DHT22;9350;53.176;8.194;2023-09-19T00:45:54;17.60;99.90
18444;DHT22;9350;53.176;8.194;2023-09-19T00:48:22;17.60;99.90
18444;DHT22;9350;53.176;8.194;2023-09-19T00:50:50;17.60;99.90
18444;DHT22;9350;53.176;8.194;2023-09-19T00:53:21;17.60;99.90
18444;DHT22;9350;53.176;8.194;2023-09-19T00:55:49;17.60;99.90
18444;DHT22;9350;53.176;8.194;2023-09-19T00:58:17;17.60;99.90
18444;DHT22;9350;53.176;8.194;2023-09-19T01:00:44;17.60;99.90
18444;DHT22;9350;53.176;8.194;2023-09-19T01:03:11;17.70;99.90
18444;DHT22;9350;53.176;8.194;2023-09-19T01:05:38;17.60;99.90
18444;DHT22;9350;53.176;8.194;2023-09-19T01:08:06;17.60;99.90
18444;DHT22;9350;53.176;8.194;2023-09-19T01:10:33;17.60;99.90
18444;DHT22;9350;53.176;8.194;2023-09-19T01:13:05;17.60;99.90
18444;DHT22;9350;53.176;8.194;2023-09-19T01:15:42;17.60;99.90
18444;DHT22;9350;53.176;8.194;2023-09-19T01:18:19;17.50;99.90
18444;DHT22;9350;53.176;8.194;2023-09-19T01:20:54;17.50;99.90
18444;DHT22;9350;53.176;8.194;2023-09-19T01:23:29;17.50;99.90
18444;DHT22;9350;53.176;8.194;2023-09-19T01:26:17;17.50;99.90
18444;DHT22;9350;53.176;8.194;2023-09-19T01:29:06;17.40;99.90
18444;DHT22;9350;53.176;8.194;2023-09-19T01:31:42;17.40;99.90
18444;DHT22;9350;53.176;8.194;2023-09-19T01:34:11;17.40;99.90
18444;DHT22;9350;53.176;8.194;2023-09-19T01:36:38;17.40;99.90
18444;DHT22;9350;53.176;8.194;2023-09-19T01:39:06;17.40;99.90
18444;DHT22;9350;53.176;8.194;2023-09-19T01:41:47;17.40;99.90
18444;DHT22;9350;53.176;8.194;2023-09-19T01:44:31;17.30;99.90
18444;DHT22;9350;53.176;8.194;2023-09-19T01:47:04;17.30;99.90
18444;DHT22;9350;53.176;8.194;2023-09-19T01:49:42;17.20;99.90
18444;DHT22;9350;53.176;8.194;2023-09-19T01:52:12;17.20;99.90
18444;DHT22;9350;53.176;8.194;2023-09-19T01:54:46;17.20;99.90
18444;DHT22;9350;53.176;8.194;2023-09-19T01:57:20;17.20;99.90
18444;DHT22;9350;53.176;8.194;2023-09-19T01:59:52;17.20;99.90
18444;DHT22;9350;53.176;8.194;2023-09-19T02:02:23;17.30;99.90
18444;DHT22;9350;53.176;8.194;2023-09-19T02:04:51;17.20;99.90
18444;DHT22;9350;53.176;8.194;2023-09-19T02:07:19;17.20;99.90
18444;DHT22;9350;53.176;8.194;2023-09-19T02:09:46;17.10;99.90
18444;DHT22;9350;53.176;8.194;2023-09-19T02:12:13;17.10;99.90
18444;DHT22;9350;53.176;8.194;2023-09-19T02:14:41;17.10;99.90
18444;DHT22;9350;53.176;8.194;2023-09-19T02:17:07;17.10;99.90
18444;DHT22;9350;53.176;8.194;2023-09-19T02:19:38;17.10;99.90
18444;DHT22;9350;53.176;8.194;2023-09-19T02:22:06;17.00;99.90
18444;DHT22;9350;53.176;8.194;2023-09-19T02:24:36;17.00;99.90
18444;DHT22;9350;53.176;8.194;2023-09-19T02:27:03;17.00;99.90
18444;DHT22;9350;53.176;8.194;2023-09-19T02:29:32;17.00;99.90
18444;DHT22;9350;53.176;8.194;2023-09-19T02:32:00;16.90;99.90
18444;DHT22;9350;53.176;8.194;2023-09-19T02:34:28;16.90;99.90
18444;DHT22;9350;53.176;8.194;2023-09-19T02:36:56;16.90;99.90
18444;DHT22;9350;53.176;8.194;2023-09-19T02:39:23;16.90;99.90
18444;DHT22;9350;53.176;8.194;2023-09-19T02:41:50;16.80;99.90
18444;DHT22;9350;53.176;8.194;2023-09-19T02:44:16;16.80;99.90
18444;DHT22;9350;53.176;8.194;2023-09-19T02:46:45;16.70;99.90
18444;DHT22;9350;53.176;8.194;2023-09-19T02:49:12;16.70;99.90
18444;DHT22;9350;53.176;8.194;2023-09-19T02:51:39;16.70;99.90
18444;DHT22;9350;53.176;8.194;2023-09-19T02:54:07;16.70;99.90
18444;DHT22;9350;53.176;8.194;2023-09-19T02:56:34;16.60;99.90
18444;DHT22;9350;53.176;8.194;2023-09-19T02:59:01;16.60;99.90
18444;DHT22;9350;53.176;8.194;2023-09-19T03:01:28;16.60;99.90
18444;DHT22;9350;53.176;8.194;2023-09-19T03:03:55;16.50;99.90
18444;DHT22;9350;53.176;8.194;2023-09-19T03:06:22;16.50;99.90
18444;DHT22;9350;53.176;8.194;2023-09-19T03:08:49;16.50;99.90
18444;DHT22;9350;53.176;8.194;2023-09-19T03:11:18;16.50;99.90
18444;DHT22;9350;53.176;8.194;2023-09-19T03:13:51;16.50;99.90
18444;DHT22;9350;53.176;8.194;2023-09-19T03:16:18;16.50;99.90
18444;DHT22;9350;53.176;8.194;2023-09-19T03:18:47;16.50;99.90
18444;DHT22;9350;53.176;8.194;2023-09-19T03:21:14;16.50;99.90
18444;DHT22;9350;53.176;8.194;2023-09-19T03:23:41;16.50;99.90
18444;DHT22;9350;53.176;8.194;2023-09-19T03:26:10;16.50;99.90
18444;DHT22;9350;53.176;8.194;2023-09-19T03:28:39;16.50;99.90
18444;DHT22;9350;53.176;8.194;2023-09-19T03:31:06;16.40;99.90
18444;DHT22;9350;53.176;8.194;2023-09-19T03:33:33;16.40;99.90
18444;DHT22;9350;53.176;8.194;2023-09-19T03:36:00;16.30;99.90
18444;DHT22;9350;53.176;8.194;2023-09-19T03:38:30;16.40;99.90
18444;DHT22;9350;53.176;8.194;2023-09-19T03:40:57;16.40;99.90
18444;DHT22;9350;53.176;8.194;2023-09-19T03:43:24;16.40;99.90
18444;DHT22;9350;53.176;8.194;2023-09-19T03:45:52;16.30;99.90
18444;DHT22;9350;53.176;8.194;2023-09-19T03:48:19;16.30;99.90
18444;DHT22;9350;53.176;8.194;2023-09-19T03:50:47;16.30;99.90
18444;DHT22;9350;53.176;8.194;2023-09-19T03:53:13;16.40;99.90
18444;DHT22;9350;53.176;8.194;2023-09-19T03:55:40;16.30;99.90
18444;DHT22;9350;53.176;8.194;2023-09-19T03:58:07;16.30;99.90
18444;DHT22;9350;53.176;8.194;2023-09-19T04:00:33;16.20;99.90
18444;DHT22;9350;53.176;8.194;2023-09-19T04:03:02;16.20;99.90
18444;DHT22;9350;53.176;8.194;2023-09-19T04:05:31;16.20;99.90
18444;DHT22;9350;53.176;8.194;2023-09-19T04:07:59;16.20;99.90
18444;DHT22;9350;53.176;8.194;2023-09-19T04:10:25;16.30;99.90
18444;DHT22;9350;53.176;8.194;2023-09-19T04:12:52;16.30;99.90
18444;DHT22;9350;53.176;8.194;2023-09-19T04:15:19;16.20;99.90
18444;DHT22;9350;53.176;8.194;2023-09-19T04:17:47;16.20;99.90
18444;DHT22;9350;53.176;8.194;2023-09-19T04:20:16;16.20;99.90
18444;DHT22;9350;53.176;8.194;2023-09-19T04:22:44;16.20;99.90
18444;DHT22;9350;53.176;8.194;2023-09-19T04:25:10;16.20;99.90
18444;DHT22;9350;53.176;8.194;2023-09-19T04:27:37;16.20;99.90
18444;DHT22;9350;53.176;8.194;2023-09-19T04:30:04;16.20;99.90
18444;DHT22;9350;53.176;8.194;2023-09-19T04:32:37;16.10;99.90
18444;DHT22;9350;53.176;8.194;2023-09-19T04:35:06;16.10;99.90
18444;DHT22;9350;53.176;8.194;2023-09-19T04:37:37;16.10;99.90
18444;DHT22;9350;53.176;8.194;2023-09-19T04:40:06;16.10;99.90
18444;DHT22;9350;53.176;8.194;2023-09-19T04:42:38;16.10;99.90
18444;DHT22;9350;53.176;8.194;2023-09-19T04:45:06;16.10;99.90
18444;DHT22;9350;53.176;8.194;2023-09-19T04:47:33;16.10;99.90
18444;DHT22;9350;53.176;8.194;2023-09-19T04:50:00;16.10;99.90
18444;DHT22;9350;53.176;8.194;2023-09-19T04:52:26;16.00;99.90
18444;DHT22;9350;53.176;8.194;2023-09-19T04:54:54;16.00;99.90
18444;DHT22;9350;53.176;8.194;2023-09-19T04:57:21;16.00;99.90
18444;DHT22;9350;53.176;8.194;2023-09-19T04:59:48;16.00;99.90
18444;DHT22;9350;53.176;8.194;2023-09-19T05:02:15;16.00;99.90
18444;DHT22;9350;53.176;8.194;2023-09-19T05:04:42;16.00;99.90
18444;DHT22;9350;53.176;8.194;2023-09-19T05:07:09;15.90;99.90
18444;DHT22;9350;53.176;8.194;2023-09-19T05:09:36;16.00;99.90
18444;DHT22;9350;53.176;8.194;2023-09-19T05:12:04;16.00;99.90
18444;DHT22;9350;53.176;8.194;2023-09-19T05:14:32;16.00;99.90
18444;DHT22;9350;53.176;8.194;2023-09-19T05:16:58;16.00;99.90
18444;DHT22;9350;53.176;8.194;2023-09-19T05:19:25;16.00;99.90
18444;DHT22;9350;53.176;8.194;2023-09-19T05:21:52;16.00;99.90
18444;DHT22;9350;53.176;8.194;2023-09-19T05:24:20;16.00;99.90
18444;DHT22;9350;53.176;8.194;2023-09-19T05:26:48;16.00;99.90
18444;DHT22;9350;53.176;8.194;2023-09-19T05:29:16;16.00;99.90
18444;DHT22;9350;53.176;8.194;2023-09-19T05:31:43;16.00;99.90
18444;DHT22;9350;53.176;8.194;2023-09-19T05:34:10;16.00;99.90
18444;DHT22;9350;53.176;8.194;2023-09-19T05:36:36;16.00;99.90
18444;DHT22;9350;53.176;8.194;2023-09-19T05:39:05;16.00;99.90
18444;DHT22;9350;53.176;8.194;2023-09-19T05:41:34;16.00;99.90
18444;DHT22;9350;53.176;8.194;2023-09-19T05:44:02;16.00;99.90
18444;DHT22;9350;53.176;8.194;2023-09-19T05:46:30;16.00;99.90
18444;DHT22;9350;53.176;8.194;2023-09-19T05:48:57;16.00;99.90
18444;DHT22;9350;53.176;8.194;2023-09-19T05:51:24;16.00;99.90
18444;DHT22;9350;53.176;8.194;2023-09-19T05:53:54;16.00;99.90
18444;DHT22;9350;53.176;8.194;2023-09-19T05:56:21;16.10;99.90
18444;DHT22;9350;53.176;8.194;2023-09-19T05:58:48;16.00;99.90
18444;DHT22;9350;53.176;8.194;2023-09-19T06:01:15;16.10;99.90
18444;DHT22;9350;53.176;8.194;2023-09-19T06:03:43;16.10;99.90
18444;DHT22;9350;53.176;8.194;2023-09-19T06:06:09;16.00;99.90
18444;DHT22;9350;53.176;8.194;2023-09-19T06:08:36;16.10;99.90
18444;DHT22;9350;53.176;8.194;2023-09-19T06:11:03;16.10;99.90
18444;DHT22;9350;53.176;8.194;2023-09-19T06:13:30;16.10;99.90
18444;DHT22;9350;53.176;8.194;2023-09-19T06:15:59;16.10;99.90
18444;DHT22;9350;53.176;8.194;2023-09-19T06:18:28;16.10;99.90
18444;DHT22;9350;53.176;8.194;2023-09-19T06:21:00;16.10;99.90
18444;DHT22;9350;53.176;8.194;2023-09-19T06:23:32;16.10;99.90
18444;DHT22;9350;53.176;8.194;2023-09-19T06:25:59;16.20;99.90
18444;DHT22;9350;53.176;8.194;2023-09-19T06:28:26;16.20;99.90
18444;DHT22;9350;53.176;8.194;2023-09-19T06:30:53;16.20;99.90
18444;DHT22;9350;53.176;8.194;2023-09-19T06:33:20;16.10;99.90
18444;DHT22;9350;53.176;8.194;2023-09-19T06:35:47;16.10;99.90
18444;DHT22;9350;53.176;8.194;2023-09-19T06:38:15;16.10;99.90
18444;DHT22;9350;53.176;8.194;2023-09-19T06:40:44;16.00;99.90
18444;DHT22;9350;53.176;8.194;2023-09-19T06:43:11;16.00;99.90
18444;DHT22;9350;53.176;8.194;2023-09-19T06:45:38;16.00;99.90
18444;DHT22;9350;53.176;8.194;2023-09-19T06:48:05;16.00;99.90
18444;DHT22;9350;53.176;8.194;2023-09-19T06:50:32;16.00;99.90
18444;DHT22;9350;53.176;8.194;2023-09-19T06:52:59;16.00;99.90
18444;DHT22;9350;53.176;8.194;2023-09-19T06:55:28;16.00;99.90
18444;DHT22;9350;53.176;8.194;2023-09-19T06:57:57;16.10;99.90
18444;DHT22;9350;53.176;8.194;2023-09-19T07:00:24;16.10;99.90
18444;DHT22;9350;53.176;8.194;2023-09-19T07:02:57;16.00;99.90
18444;DHT22;9350;53.176;8.194;2023-09-19T07:05:26;16.10;99.90
18444;DHT22;9350;53.176;8.194;2023-09-19T07:07:54;16.10;99.90
18444;DHT22;9350;53.176;8.194;2023-09-19T07:10:21;16.20;99.90
18444;DHT22;9350;53.176;8.194;2023-09-19T07:12:55;16.20;99.90
18444;DHT22;9350;53.176;8.194;2023-09-19T07:15:21;16.30;99.90
18444;DHT22;9350;53.176;8.194;2023-09-19T07:17:50;16.30;99.90
18444;DHT22;9350;53.176;8.194;2023-09-19T07:20:17;16.30;99.90
18444;DHT22;9350;53.176;8.194;2023-09-19T07:22:44;16.30;99.90
18444;DHT22;9350;53.176;8.194;2023-09-19T07:25:10;16.30;99.90
18444;DHT22;9350;53.176;8.194;2023-09-19T07:27:39;16.30;99.90
18444;DHT22;9350;53.176;8.194;2023-09-19T07:30:08;16.30;99.90
18444;DHT22;9350;53.176;8.194;2023-09-19T07:32:35;16.30;99.90
18444;DHT22;9350;53.176;8.194;2023-09-19T07:35:03;16.40;99.90
18444;DHT22;9350;53.176;8.194;2023-09-19T07:37:31;16.50;99.90
18444;DHT22;9350;53.176;8.194;2023-09-19T07:39:58;16.50;99.90
18444;DHT22;9350;53.176;8.194;2023-09-19T07:42:25;16.50;99.90
18444;DHT22;9350;53.176;8.194;2023-09-19T07:44:52;16.60;99.90
18444;DHT22;9350;53.176;8.194;2023-09-19T07:47:20;16.60;99.90
18444;DHT22;9350;53.176;8.194;2023-09-19T07:49:47;16.60;99.90
18444;DHT22;9350;53.176;8.194;2023-09-19T07:52:14;16.60;99.90
18444;DHT22;9350;53.176;8.194;2023-09-19T07:54:41;16.60;99.90
18444;DHT22;9350;53.176;8.194;2023-09-19T07:57:09;16.70;99.90
18444;DHT22;9350;53.176;8.194;2023-09-19T07:59:36;16.70;99.90
18444;DHT22;9350;53.176;8.194;2023-09-19T08:02:04;16.80;99.90
18444;DHT22;9350;53.176;8.194;2023-09-19T08:04:32;16.80;99.90
18444;DHT22;9350;53.176;8.194;2023-09-19T08:06:59;16.80;99.90
18444;DHT22;9350;53.176;8.194;2023-09-19T08:09:29;16.70;99.90
18444;DHT22;9350;53.176;8.194;2023-09-19T08:11:58;16.80;99.90
18444;DHT22;9350;53.176;8.194;2023-09-19T08:14:28;16.80;99.90
18444;DHT22;9350;53.176;8.194;2023-09-19T08:16:56;16.80;99.90
18444;DHT22;9350;53.176;8.194;2023-09-19T08:19:23;16.80;99.90
18444;DHT22;9350;53.176;8.194;2023-09-19T08:21:55;16.80;99.90
18444;DHT22;9350;53.176;8.194;2023-09-19T08:24:24;16.90;99.90
18444;DHT22;9350;53.176;8.194;2023-09-19T08:26:52;16.90;99.90
18444;DHT22;9350;53.176;8.194;2023-09-19T08:29:20;16.90;99.90
18444;DHT22;9350;53.176;8.194;2023-09-19T08:31:46;17.10;99.90
18444;DHT22;9350;53.176;8.194;2023-09-19T08:34:14;17.10;99.90
18444;DHT22;9350;53.176;8.194;2023-09-19T08:36:42;17.10;99.90
18444;DHT22;9350;53.176;8.194;2023-09-19T08:39:11;17.10;99.90
18444;DHT22;9350;53.176;8.194;2023-09-19T08:41:39;17.30;99.90
18444;DHT22;9350;53.176;8.194;2023-09-19T08:44:06;17.30;99.90
18444;DHT22;9350;53.176;8.194;2023-09-19T08:46:34;17.30;99.90
18444;DHT22;9350;53.176;8.194;2023-09-19T08:49:04;17.30;99.90
18444;DHT22;9350;53.176;8.194;2023-09-19T08:51:41;17.30;99.90
18444;DHT22;9350;53.176;8.194;2023-09-19T08:54:20;17.30;99.90
18444;DHT22;9350;53.176;8.194;2023-09-19T08:56:50;17.30;99.90
18444;DHT22;9350;53.176;8.194;2023-09-19T08:59:21;17.30;99.90
18444;DHT22;9350;53.176;8.194;2023-09-19T09:01:51;17.30;99.90
18444;DHT22;9350;53.176;8.194;2023-09-19T09:04:19;17.30;99.90
18444;DHT22;9350;53.176;8.194;2023-09-19T09:06:46;17.30;99.90
18444;DHT22;9350;53.176;8.194;2023-09-19T09:09:15;17.40;99.90
18444;DHT22;9350;53.176;8.194;2023-09-19T09:11:42;17.40;99.90
18444;DHT22;9350;53.176;8.194;2023-09-19T09:14:09;17.40;99.90
18444;DHT22;9350;53.176;8.194;2023-09-19T09:16:36;17.40;99.90
18444;DHT22;9350;53.176;8.194;2023-09-19T09:19:04;17.40;99.90
18444;DHT22;9350;53.176;8.194;2023-09-19T09:21:31;17.30;99.90
18444;DHT22;9350;53.176;8.194;2023-09-19T09:24:25;17.30;99.90
18444;DHT22;9350;53.176;8.194;2023-09-19T09:26:53;17.30;99.90
18444;DHT22;9350;53.176;8.194;2023-09-19T09:29:40;17.30;99.90
18444;DHT22;9350;53.176;8.194;2023-09-19T09:32:17;17.20;99.90
18444;DHT22;9350;53.176;8.194;2023-09-19T09:34:45;17.20;99.90
18444;DHT22;9350;53.176;8.194;2023-09-19T09:37:13;17.20;99.90
18444;DHT22;9350;53.176;8.194;2023-09-19T09:39:49;17.30;99.90
18444;DHT22;9350;53.176;8.194;2023-09-19T09:42:29;17.30;99.90
18444;DHT22;9350;53.176;8.194;2023-09-19T09:45:12;17.40;99.90
18444;DHT22;9350;53.176;8.194;2023-09-19T09:47:43;17.50;99.90
18444;DHT22;9350;53.176;8.194;2023-09-19T09:50:26;17.50;99.90
18444;DHT22;9350;53.176;8.194;2023-09-19T09:53:19;17.50;99.90
18444;DHT22;9350;53.176;8.194;2023-09-19T09:56:04;17.50;99.90
18444;DHT22;9350;53.176;8.194;2023-09-19T09:58:32;17.40;99.90
18444;DHT22;9350;53.176;8.194;2023-09-19T10:01:01;17.40;99.90
18444;DHT22;9350;53.176;8.194;2023-09-19T10:03:35;17.50;99.90
18444;DHT22;9350;53.176;8.194;2023-09-19T10:06:06;17.40;99.90
18444;DHT22;9350;53.176;8.194;2023-09-19T10:09:00;17.50;99.90
18444;DHT22;9350;53.176;8.194;2023-09-19T10:11:40;17.50;99.90
18444;DHT22;9350;53.176;8.194;2023-09-19T10:14:09;17.60;99.90
18444;DHT22;9350;53.176;8.194;2023-09-19T10:16:40;17.60;99.90
18444;DHT22;9350;53.176;8.194;2023-09-19T10:19:08;17.70;99.90
18444;DHT22;9350;53.176;8.194;2023-09-19T10:21:36;17.70;99.90
18444;DHT22;9350;53.176;8.194;2023-09-19T10:24:04;17.70;99.90
18444;DHT22;9350;53.176;8.194;2023-09-19T10:26:35;17.80;99.90
18444;DHT22;9350;53.176;8.194;2023-09-19T10:29:06;17.80;99.90
18444;DHT22;9350;53.176;8.194;2023-09-19T10:31:36;17.90;99.90
18444;DHT22;9350;53.176;8.194;2023-09-19T10:34:07;17.90;99.90
18444;DHT22;9350;53.176;8.194;2023-09-19T10:36:36;18.00;99.90
18444;DHT22;9350;53.176;8.194;2023-09-19T10:39:05;18.10;99.90
18444;DHT22;9350;53.176;8.194;2023-09-19T10:41:34;18.10;99.90
18444;DHT22;9350;53.176;8.194;2023-09-19T10:44:04;18.00;99.90
18444;DHT22;9350;53.176;8.194;2023-09-19T10:46:32;18.00;99.90
18444;DHT22;9350;53.176;8.194;2023-09-19T10:48:59;18.00;99.90
18444;DHT22;9350;53.176;8.194;2023-09-19T10:51:30;18.10;99.90
18444;DHT22;9350;53.176;8.194;2023-09-19T10:54:02;18.20;99.90
18444;DHT22;9350;53.176;8.194;2023-09-19T10:56:33;18.20;99.90
18444;DHT22;9350;53.176;8.194;2023-09-19T10:59:08;18.20;99.90
18444;DHT22;9350;53.176;8.194;2023-09-19T11:01:43;18.30;99.90
18444;DHT22;9350;53.176;8.194;2023-09-19T11:04:29;18.30;99.90
18444;DHT22;9350;53.176;8.194;2023-09-19T11:07:03;18.30;99.90
18444;DHT22;9350;53.176;8.194;2023-09-19T11:09:52;18.30;99.90
18444;DHT22;9350;53.176;8.194;2023-09-19T11:12:49;18.20;99.90
18444;DHT22;9350;53.176;8.194;2023-09-19T11:18:56;18.30;99.90
18444;DHT22;9350;53.176;8.194;2023-09-19T11:24:30;18.30;99.90
18444;DHT22;9350;53.176;8.194;2023-09-19T11:27:12;18.30;99.90
18444;DHT22;9350;53.176;8.194;2023-09-19T11:29:40;18.30;99.90
18444;DHT22;9350;53.176;8.194;2023-09-19T11:32:07;18.30;99.90
18444;DHT22;9350;53.176;8.194;2023-09-19T11:34:54;18.40;99.90
18444;DHT22;9350;53.176;8.194;2023-09-19T11:38:00;18.40;99.90
18444;DHT22;9350;53.176;8.194;2023-09-19T11:40:28;18.40;99.90
18444;DHT22;9350;53.176;8.194;2023-09-19T11:42:56;18.40;99.90
18444;DHT22;9350;53.176;8.194;2023-09-19T11:48:27;18.60;99.90
18444;DHT22;9350;53.176;8.194;2023-09-19T11:50:56;18.50;99.90
18444;DHT22;9350;53.176;8.194;2023-09-19T11:53:31;18.60;99.90
18444;DHT22;9350;53.176;8.194;2023-09-19T11:56:01;18.60;99.90
18444;DHT22;9350;53.176;8.194;2023-09-19T11:58:28;18.60;99.90
18444;DHT22;9350;53.176;8.194;2023-09-19T12:00:57;18.70;99.90
18444;DHT22;9350;53.176;8.194;2023-09-19T12:03:29;18.70;99.90
18444;DHT22;9350;53.176;8.194;2023-09-19T12:05:59;18.70;99.90
18444;DHT22;9350;53.176;8.194;2023-09-19T12:08:28;18.70;99.90
18444;DHT22;9350;53.176;8.194;2023-09-19T12:10:55;18.80;99.90
18444;DHT22;9350;53.176;8.194;2023-09-19T12:13:23;18.90;99.90
18444;DHT22;9350;53.176;8.194;2023-09-19T12:15:51;18.90;99.90
18444;DHT22;9350;53.176;8.194;2023-09-19T12:18:27;18.90;99.90
18444;DHT22;9350;53.176;8.194;2023-09-19T12:20:55;19.00;99.90
18444;DHT22;9350;53.176;8.194;2023-09-19T12:23:25;18.90;99.90
18444;DHT22;9350;53.176;8.194;2023-09-19T12:25:52;18.90;99.90
18444;DHT22;9350;53.176;8.194;2023-09-19T12:28:22;18.90;99.90
18444;DHT22;9350;53.176;8.194;2023-09-19T12:30:52;18.90;99.90
18444;DHT22;9350;53.176;8.194;2023-09-19T12:33:21;18.90;99.90
18444;DHT22;9350;53.176;8.194;2023-09-19T12:35:51;18.90;99.90
18444;DHT22;9350;53.176;8.194;2023-09-19T12:38:25;18.90;99.90
18444;DHT22;9350;53.176;8.194;2023-09-19T12:40:54;19.00;99.90
18444;DHT22;9350;53.176;8.194;2023-09-19T12:43:24;18.90;99.90
18444;DHT22;9350;53.176;8.194;2023-09-19T12:45:52;19.00;99.90
18444;DHT22;9350;53.176;8.194;2023-09-19T12:48:20;19.00;99.90
18444;DHT22;9350;53.176;8.194;2023-09-19T12:51:01;19.10;99.90
18444;DHT22;9350;53.176;8.194;2023-09-19T12:53:32;19.10;99.90
18444;DHT22;9350;53.176;8.194;2023-09-19T12:56:01;19.10;99.90
18444;DHT22;9350;53.176;8.194;2023-09-19T12:58:31;19.10;99.90
18444;DHT22;9350;53.176;8.194;2023-09-19T13:01:00;19.10;99.90
18444;DHT22;9350;53.176;8.194;2023-09-19T13:03:28;19.10;99.90
18444;DHT22;9350;53.176;8.194;2023-09-19T13:05:59;19.00;99.90
18444;DHT22;9350;53.176;8.194;2023-09-19T13:08:27;19.10;99.90
18444;DHT22;9350;53.176;8.194;2023-09-19T13:11:06;19.20;99.90
18444;DHT22;9350;53.176;8.194;2023-09-19T13:13:40;19.10;99.90
18444;DHT22;9350;53.176;8.194;2023-09-19T13:16:07;19.20;99.90
18444;DHT22;9350;53.176;8.194;2023-09-19T13:18:47;19.20;99.90
18444;DHT22;9350;53.176;8.194;2023-09-19T13:21:17;19.30;99.90
18444;DHT22;9350;53.176;8.194;2023-09-19T13:23:51;19.30;99.90
18444;DHT22;9350;53.176;8.194;2023-09-19T13:26:19;19.30;99.90
18444;DHT22;9350;53.176;8.194;2023-09-19T13:28:48;19.20;99.90
18444;DHT22;9350;53.176;8.194;2023-09-19T13:31:15;19.20;99.90
18444;DHT22;9350;53.176;8.194;2023-09-19T13:33:45;19.20;99.90
18444;DHT22;9350;53.176;8.194;2023-09-19T13:36:12;19.20;99.90
18444;DHT22;9350;53.176;8.194;2023-09-19T13:38:40;19.30;99.90
18444;DHT22;9350;53.176;8.194;2023-09-19T13:41:08;19.30;99.90
18444;DHT22;9350;53.176;8.194;2023-09-19T13:43:37;19.30;99.90
18444;DHT22;9350;53.176;8.194;2023-09-19T13:46:05;19.30;99.90
18444;DHT22;9350;53.176;8.194;2023-09-19T13:48:33;19.30;99.90
18444;DHT22;9350;53.176;8.194;2023-09-19T13:51:02;19.40;99.90
18444;DHT22;9350;53.176;8.194;2023-09-19T13:53:30;19.30;99.90
18444;DHT22;9350;53.176;8.194;2023-09-19T13:55:56;19.30;99.90
18444;DHT22;9350;53.176;8.194;2023-09-19T13:58:23;19.30;99.90
18444;DHT22;9350;53.176;8.194;2023-09-19T14:00:51;19.30;99.90
18444;DHT22;9350;53.176;8.194;2023-09-19T14:03:20;19.30;99.90
18444;DHT22;9350;53.176;8.194;2023-09-19T14:05:47;19.20;99.90
18444;DHT22;9350;53.176;8.194;2023-09-19T14:08:17;19.20;99.90
18444;DHT22;9350;53.176;8.194;2023-09-19T14:10:43;19.10;99.90
18444;DHT22;9350;53.176;8.194;2023-09-19T14:13:10;19.10;99.90
18444;DHT22;9350;53.176;8.194;2023-09-19T14:15:38;19.10;99.90
18444;DHT22;9350;53.176;8.194;2023-09-19T14:18:06;19.10;99.90
18444;DHT22;9350;53.176;8.194;2023-09-19T14:20:38;19.00;99.90
18444;DHT22;9350;53.176;8.194;2023-09-19T14:23:04;19.10;99.90
18444;DHT22;9350;53.176;8.194;2023-09-19T14:25:34;19.00;99.90
18444;DHT22;9350;53.176;8.194;2023-09-19T14:28:01;19.00;99.90
18444;DHT22;9350;53.176;8.194;2023-09-19T14:30:27;19.00;99.90
18444;DHT22;9350;53.176;8.194;2023-09-19T14:32:54;19.00;99.90
18444;DHT22;9350;53.176;8.194;2023-09-19T14:35:22;19.00;99.90
18444;DHT22;9350;53.176;8.194;2023-09-19T14:37:49;19.00;99.90
18444;DHT22;9350;53.176;8.194;2023-09-19T14:40:16;19.00;99.90
18444;DHT22;9350;53.176;8.194;2023-09-19T14:42:43;19.00;99.90
18444;DHT22;9350;53.176;8.194;2023-09-19T14:45:11;19.00;99.90
18444;DHT22;9350;53.176;8.194;2023-09-19T14:47:40;19.00;99.90
18444;DHT22;9350;53.176;8.194;2023-09-19T14:50:07;18.90;99.90
18444;DHT22;9350;53.176;8.194;2023-09-19T14:52:36;18.90;99.90
18444;DHT22;9350;53.176;8.194;2023-09-19T14:55:03;18.90;99.90
18444;DHT22;9350;53.176;8.194;2023-09-19T14:57:31;18.90;99.90
18444;DHT22;9350;53.176;8.194;2023-09-19T14:59:58;18.80;99.90
18444;DHT22;9350;53.176;8.194;2023-09-19T15:02:25;18.90;99.90
18444;DHT22;9350;53.176;8.194;2023-09-19T15:04:52;18.90;99.90
18444;DHT22;9350;53.176;8.194;2023-09-19T15:07:19;18.80;99.90
18444;DHT22;9350;53.176;8.194;2023-09-19T15:09:47;18.80;99.90
18444;DHT22;9350;53.176;8.194;2023-09-19T15:12:13;18.80;99.90
18444;DHT22;9350;53.176;8.194;2023-09-19T15:14:40;18.80;99.90
18444;DHT22;9350;53.176;8.194;2023-09-19T15:17:08;18.90;99.90
18444;DHT22;9350;53.176;8.194;2023-09-19T15:19:34;18.90;99.90
18444;DHT22;9350;53.176;8.194;2023-09-19T15:22:03;18.90;99.90
18444;DHT22;9350;53.176;8.194;2023-09-19T15:24:30;18.90;99.90
18444;DHT22;9350;53.176;8.194;2023-09-19T15:26:58;19.00;99.90
18444;DHT22;9350;53.176;8.194;2023-09-19T15:29:25;19.00;99.90
18444;DHT22;9350;53.176;8.194;2023-09-19T15:31:51;19.00;99.90
18444;DHT22;9350;53.176;8.194;2023-09-19T15:34:18;19.00;99.90
18444;DHT22;9350;53.176;8.194;2023-09-19T15:36:45;19.00;99.90
18444;DHT22;9350;53.176;8.194;2023-09-19T15:39:11;19.00;99.90
18444;DHT22;9350;53.176;8.194;2023-09-19T15:41:41;18.90;99.90
18444;DHT22;9350;53.176;8.194;2023-09-19T15:44:14;19.00;99.90
18444;DHT22;9350;53.176;8.194;2023-09-19T15:46:42;18.90;99.90
18444;DHT22;9350;53.176;8.194;2023-09-19T15:49:10;18.90;99.90
18444;DHT22;9350;53.176;8.194;2023-09-19T15:51:37;18.90;99.90
18444;DHT22;9350;53.176;8.194;2023-09-19T15:54:08;18.90;99.90
18444;DHT22;9350;53.176;8.194;2023-09-19T15:56:35;18.90;99.90
18444;DHT22;9350;53.176;8.194;2023-09-19T15:59:02;18.90;99.90
18444;DHT22;9350;53.176;8.194;2023-09-19T16:01:30;18.90;99.90
18444;DHT22;9350;53.176;8.194;2023-09-19T16:03:57;18.90;99.90
18444;DHT22;9350;53.176;8.194;2023-09-19T16:06:25;18.90;99.90
18444;DHT22;9350;53.176;8.194;2023-09-19T16:08:53;18.90;99.90